Airport Erfurt-Weimar

EDDE · Thuringia, 德国

罗盘
风向 的 风向 280° 埃尔福特-魏玛机场 9/27
风: 10 kt, 3 beaufort

10 kt

1 kt
改变
0 ft 1.000 2.000 3.000 4.000 5.000
Cloud Cloud Cloud Cloud Cloud Cloud
BKN 2.600
METAR EDDE 162220Z AUTO 28010KT 9999 BKN026 05/04 Q1005

METAR 埃尔福特-魏玛机场 - EDDE/ERF

埃尔福特-魏玛机场是,德国中的中型机场。 该机场位于纬度50,97980和经度10,95810。 该机场有一条跑道: 9/27. 本场的ICAO机场代码为EDDE。 该机场的IATA代码为ERF。 机场在Munich FIR中。

该航空气象观测是针对埃尔福特-魏玛机场在2024年4月17日 00:20, 当地时间进行的。

机场观察

风向为280°,速度为10 kt。

可见度为10 km 或者更多。

有碎云在2.600 ft的高度。 破损或更高的上限为2.600 ft。

温度为5 °C,阵风为-1 °C。 露点为4 °C,相对湿度为93%。 海平面上的气压为1005 hPa (QNH)。

白天

今天,太阳从06:17升起,在20:13降落。 这适用于埃尔福特-魏玛机场,世界夏令时可能有所不同。 当地时间与世界标准时间之间的时差为+2 小时。 夏令时目前正在进行中。

公司介绍

我们没有关于这个机场的公司信息。

体会

到Vliegles.nl去找飞行课程,跳伞和其他飞行体验。 浏览页面,了解埃尔福特-魏玛机场附近所有可用的活动。 你也可以使用搜索功能来寻找你所在地附近的特定飞行课程、跳伞或其他飞行体验。

跑道

Id 标题 侧风 逆风 侧风 %
9/27 097°-277° 10 kt 5 %

逆风成分最大的方向会被突出显示,并用于横风计算。 这并不一定意味着这个方向在使用。

乌云

2.600 ft BKN 碎云

温度 & 天气

温度 5 °C
露点 4 °C
相对湿度 93%
风寒 -1 °C
Kp-index 3 (0-9)

白天

日出
06:17 (5:41)
中午
13:15
日落
20:13

小工具

你想在你的网站上有一个关于埃尔福特-魏玛机场的当前航空天气(METAR)的小部件吗?

显示HTML代码
报告变更